sensor_id;sensor_type;location;lat;lon;timestamp;temperature;humidity
48998;DHT22;34807;51.456;7.244;2023-02-04T00:02:20;6.40;99.90
48998;DHT22;34807;51.456;7.244;2023-02-04T00:04:45;6.40;99.90
48998;DHT22;34807;51.456;7.244;2023-02-04T00:07:11;6.40;99.90
48998;DHT22;34807;51.456;7.244;2023-02-04T00:09:36;6.40;99.90
48998;DHT22;34807;51.456;7.244;2023-02-04T00:12:02;6.40;99.90
48998;DHT22;34807;51.456;7.244;2023-02-04T00:14:27;6.40;99.90
48998;DHT22;34807;51.456;7.244;2023-02-04T00:16:53;6.40;99.90
48998;DHT22;34807;51.456;7.244;2023-02-04T00:19:18;6.40;99.90
48998;DHT22;34807;51.456;7.244;2023-02-04T00:21:44;6.30;99.90
48998;DHT22;34807;51.456;7.244;2023-02-04T00:24:09;6.40;99.90
48998;DHT22;34807;51.456;7.244;2023-02-04T00:26:35;6.40;99.90
48998;DHT22;34807;51.456;7.244;2023-02-04T00:29:00;6.30;99.90
48998;DHT22;34807;51.456;7.244;2023-02-04T00:31:26;6.30;99.90
48998;DHT22;34807;51.456;7.244;2023-02-04T00:33:51;6.30;99.90
48998;DHT22;34807;51.456;7.244;2023-02-04T00:36:17;6.30;99.90
48998;DHT22;34807;51.456;7.244;2023-02-04T00:38:42;6.30;99.90
48998;DHT22;34807;51.456;7.244;2023-02-04T00:41:08;6.30;99.90
48998;DHT22;34807;51.456;7.244;2023-02-04T00:43:33;6.30;99.90
48998;DHT22;34807;51.456;7.244;2023-02-04T00:45:59;6.30;99.90
48998;DHT22;34807;51.456;7.244;2023-02-04T00:48:24;6.30;99.90
48998;DHT22;34807;51.456;7.244;2023-02-04T00:50:50;6.30;99.90
48998;DHT22;34807;51.456;7.244;2023-02-04T00:53:17;6.30;99.90
48998;DHT22;34807;51.456;7.244;2023-02-04T00:55:42;6.30;99.90
48998;DHT22;34807;51.456;7.244;2023-02-04T00:58:08;6.30;99.90
48998;DHT22;34807;51.456;7.244;2023-02-04T01:00:33;6.30;99.90
48998;DHT22;34807;51.456;7.244;2023-02-04T01:02:59;6.30;99.90
48998;DHT22;34807;51.456;7.244;2023-02-04T01:05:24;6.30;99.90
48998;DHT22;34807;51.456;7.244;2023-02-04T01:07:50;6.30;99.90
48998;DHT22;34807;51.456;7.244;2023-02-04T01:10:15;6.30;99.90
48998;DHT22;34807;51.456;7.244;2023-02-04T01:12:42;6.30;99.90
48998;DHT22;34807;51.456;7.244;2023-02-04T01:15:07;6.30;99.90
48998;DHT22;34807;51.456;7.244;2023-02-04T01:17:33;6.30;99.90
48998;DHT22;34807;51.456;7.244;2023-02-04T01:19:59;6.30;99.90
48998;DHT22;34807;51.456;7.244;2023-02-04T01:22:24;6.30;99.90
48998;DHT22;34807;51.456;7.244;2023-02-04T01:24:49;6.30;99.90
48998;DHT22;34807;51.456;7.244;2023-02-04T01:27:15;6.30;99.90
48998;DHT22;34807;51.456;7.244;2023-02-04T01:29:40;6.30;99.90
48998;DHT22;34807;51.456;7.244;2023-02-04T01:32:06;6.30;99.90
48998;DHT22;34807;51.456;7.244;2023-02-04T01:34:31;6.30;99.90
48998;DHT22;34807;51.456;7.244;2023-02-04T01:36:57;6.30;99.90
48998;DHT22;34807;51.456;7.244;2023-02-04T01:39:22;6.30;99.90
48998;DHT22;34807;51.456;7.244;2023-02-04T01:41:48;6.30;99.90
48998;DHT22;34807;51.456;7.244;2023-02-04T01:44:13;6.30;99.90
48998;DHT22;34807;51.456;7.244;2023-02-04T01:46:39;6.30;99.90
48998;DHT22;34807;51.456;7.244;2023-02-04T01:49:05;6.30;99.90
48998;DHT22;34807;51.456;7.244;2023-02-04T01:51:30;6.30;99.90
48998;DHT22;34807;51.456;7.244;2023-02-04T01:53:57;6.30;99.90
48998;DHT22;34807;51.456;7.244;2023-02-04T01:56:24;6.30;99.90
48998;DHT22;34807;51.456;7.244;2023-02-04T01:58:51;6.30;99.90
48998;DHT22;34807;51.456;7.244;2023-02-04T02:03:57;6.30;99.90
48998;DHT22;34807;51.456;7.244;2023-02-04T02:06:23;6.30;99.90
48998;DHT22;34807;51.456;7.244;2023-02-04T02:08:48;6.30;99.90
48998;DHT22;34807;51.456;7.244;2023-02-04T02:11:14;6.30;99.90
48998;DHT22;34807;51.456;7.244;2023-02-04T02:13:40;6.30;99.90
48998;DHT22;34807;51.456;7.244;2023-02-04T02:16:05;6.30;99.90
48998;DHT22;34807;51.456;7.244;2023-02-04T02:18:31;6.30;99.90
48998;DHT22;34807;51.456;7.244;2023-02-04T02:20:56;6.20;99.90
48998;DHT22;34807;51.456;7.244;2023-02-04T02:26:08;6.20;99.90
48998;DHT22;34807;51.456;7.244;2023-02-04T02:28:33;6.20;99.90
48998;DHT22;34807;51.456;7.244;2023-02-04T02:30:59;6.20;99.90
48998;DHT22;34807;51.456;7.244;2023-02-04T02:33:24;6.30;99.90
48998;DHT22;34807;51.456;7.244;2023-02-04T02:35:50;6.20;99.90
48998;DHT22;34807;51.456;7.244;2023-02-04T02:38:16;6.20;99.90
48998;DHT22;34807;51.456;7.244;2023-02-04T02:40:42;6.20;99.90
48998;DHT22;34807;51.456;7.244;2023-02-04T02:43:08;6.20;99.90
48998;DHT22;34807;51.456;7.244;2023-02-04T02:45:36;6.20;99.90
48998;DHT22;34807;51.456;7.244;2023-02-04T02:48:02;6.20;99.90
48998;DHT22;34807;51.456;7.244;2023-02-04T02:50:28;6.20;99.90
48998;DHT22;34807;51.456;7.244;2023-02-04T02:52:54;6.20;99.90
48998;DHT22;34807;51.456;7.244;2023-02-04T02:55:21;6.20;99.90
48998;DHT22;34807;51.456;7.244;2023-02-04T02:57:47;6.20;99.90
48998;DHT22;34807;51.456;7.244;2023-02-04T03:00:14;6.20;99.90
48998;DHT22;34807;51.456;7.244;2023-02-04T03:02:40;6.20;99.90
48998;DHT22;34807;51.456;7.244;2023-02-04T03:05:06;6.20;99.90
48998;DHT22;34807;51.456;7.244;2023-02-04T03:07:31;6.20;99.90
48998;DHT22;34807;51.456;7.244;2023-02-04T03:09:57;6.20;99.90
48998;DHT22;34807;51.456;7.244;2023-02-04T03:12:22;6.20;99.90
48998;DHT22;34807;51.456;7.244;2023-02-04T03:14:48;6.20;99.90
48998;DHT22;34807;51.456;7.244;2023-02-04T03:17:13;6.20;99.90
48998;DHT22;34807;51.456;7.244;2023-02-04T03:19:39;6.20;99.90
48998;DHT22;34807;51.456;7.244;2023-02-04T03:22:05;6.20;99.90
48998;DHT22;34807;51.456;7.244;2023-02-04T03:24:31;6.20;99.90
48998;DHT22;34807;51.456;7.244;2023-02-04T03:26:56;6.20;99.90
48998;DHT22;34807;51.456;7.244;2023-02-04T03:29:22;6.20;99.90
48998;DHT22;34807;51.456;7.244;2023-02-04T03:31:48;6.20;99.90
48998;DHT22;34807;51.456;7.244;2023-02-04T03:34:13;6.20;99.90
48998;DHT22;34807;51.456;7.244;2023-02-04T03:36:39;6.20;99.90
48998;DHT22;34807;51.456;7.244;2023-02-04T03:39:04;6.20;99.90
48998;DHT22;34807;51.456;7.244;2023-02-04T03:41:30;6.20;99.90
48998;DHT22;34807;51.456;7.244;2023-02-04T03:43:55;6.20;99.90
48998;DHT22;34807;51.456;7.244;2023-02-04T03:46:21;6.20;99.90
48998;DHT22;34807;51.456;7.244;2023-02-04T03:48:48;6.20;99.90
48998;DHT22;34807;51.456;7.244;2023-02-04T03:51:13;6.20;99.90
48998;DHT22;34807;51.456;7.244;2023-02-04T03:53:39;6.20;99.90
48998;DHT22;34807;51.456;7.244;2023-02-04T03:56:04;6.20;99.90
48998;DHT22;34807;51.456;7.244;2023-02-04T03:58:30;6.20;99.90
48998;DHT22;34807;51.456;7.244;2023-02-04T04:00:55;6.20;99.90
48998;DHT22;34807;51.456;7.244;2023-02-04T04:03:21;6.20;99.90
48998;DHT22;34807;51.456;7.244;2023-02-04T04:05:46;6.20;99.90
48998;DHT22;34807;51.456;7.244;2023-02-04T04:08:12;6.20;99.90
48998;DHT22;34807;51.456;7.244;2023-02-04T04:10:37;6.20;99.90
48998;DHT22;34807;51.456;7.244;2023-02-04T04:13:03;6.20;99.90
48998;DHT22;34807;51.456;7.244;2023-02-04T04:15:29;6.20;99.90
48998;DHT22;34807;51.456;7.244;2023-02-04T04:17:54;6.20;99.90
48998;DHT22;34807;51.456;7.244;2023-02-04T04:20:20;6.10;99.90
48998;DHT22;34807;51.456;7.244;2023-02-04T04:22:50;6.20;99.90
48998;DHT22;34807;51.456;7.244;2023-02-04T04:25:15;6.20;99.90
48998;DHT22;34807;51.456;7.244;2023-02-04T04:27:41;6.20;99.90
48998;DHT22;34807;51.456;7.244;2023-02-04T04:30:06;6.10;99.90
48998;DHT22;34807;51.456;7.244;2023-02-04T04:32:32;6.20;99.90
48998;DHT22;34807;51.456;7.244;2023-02-04T04:34:57;6.20;99.90
48998;DHT22;34807;51.456;7.244;2023-02-04T04:37:23;6.20;99.90
48998;DHT22;34807;51.456;7.244;2023-02-04T04:39:48;6.20;99.90
48998;DHT22;34807;51.456;7.244;2023-02-04T04:42:14;6.10;99.90
48998;DHT22;34807;51.456;7.244;2023-02-04T04:44:39;6.10;99.90
48998;DHT22;34807;51.456;7.244;2023-02-04T04:47:05;6.20;99.90
48998;DHT22;34807;51.456;7.244;2023-02-04T04:49:30;6.10;99.90
48998;DHT22;34807;51.456;7.244;2023-02-04T04:51:56;6.20;99.90
48998;DHT22;34807;51.456;7.244;2023-02-04T04:54:21;6.20;99.90
48998;DHT22;34807;51.456;7.244;2023-02-04T04:56:47;6.20;99.90
48998;DHT22;34807;51.456;7.244;2023-02-04T04:59:12;6.20;99.90
48998;DHT22;34807;51.456;7.244;2023-02-04T05:01:38;6.20;99.90
48998;DHT22;34807;51.456;7.244;2023-02-04T05:04:03;6.20;99.90
48998;DHT22;34807;51.456;7.244;2023-02-04T05:06:29;6.20;99.90
48998;DHT22;34807;51.456;7.244;2023-02-04T05:08:55;6.20;99.90
48998;DHT22;34807;51.456;7.244;2023-02-04T05:11:20;6.10;99.90
48998;DHT22;34807;51.456;7.244;2023-02-04T05:13:46;6.20;99.90
48998;DHT22;34807;51.456;7.244;2023-02-04T05:16:11;6.10;99.90
48998;DHT22;34807;51.456;7.244;2023-02-04T05:18:37;6.10;99.90
48998;DHT22;34807;51.456;7.244;2023-02-04T05:21:03;6.10;99.90
48998;DHT22;34807;51.456;7.244;2023-02-04T05:23:29;6.10;99.90
48998;DHT22;34807;51.456;7.244;2023-02-04T05:25:54;6.10;99.90
48998;DHT22;34807;51.456;7.244;2023-02-04T05:28:20;6.10;99.90
48998;DHT22;34807;51.456;7.244;2023-02-04T05:30:45;6.10;99.90
48998;DHT22;34807;51.456;7.244;2023-02-04T05:33:11;6.10;99.90
48998;DHT22;34807;51.456;7.244;2023-02-04T05:35:36;6.10;99.90
48998;DHT22;34807;51.456;7.244;2023-02-04T05:38:02;6.10;99.90
48998;DHT22;34807;51.456;7.244;2023-02-04T05:40:27;6.10;99.90
48998;DHT22;34807;51.456;7.244;2023-02-04T05:42:53;6.10;99.90
48998;DHT22;34807;51.456;7.244;2023-02-04T05:45:18;6.10;99.90
48998;DHT22;34807;51.456;7.244;2023-02-04T05:47:44;6.10;99.90
48998;DHT22;34807;51.456;7.244;2023-02-04T05:50:09;6.10;99.90
48998;DHT22;34807;51.456;7.244;2023-02-04T05:52:35;6.10;99.90
48998;DHT22;34807;51.456;7.244;2023-02-04T05:55:00;6.10;99.90
48998;DHT22;34807;51.456;7.244;2023-02-04T05:57:26;6.10;99.90
48998;DHT22;34807;51.456;7.244;2023-02-04T05:59:51;6.10;99.90
48998;DHT22;34807;51.456;7.244;2023-02-04T06:02:17;6.10;99.90
48998;DHT22;34807;51.456;7.244;2023-02-04T06:04:42;6.10;99.90
48998;DHT22;34807;51.456;7.244;2023-02-04T06:07:08;6.10;99.90
48998;DHT22;34807;51.456;7.244;2023-02-04T06:09:33;6.10;99.90
48998;DHT22;34807;51.456;7.244;2023-02-04T06:11:59;6.10;99.90
48998;DHT22;34807;51.456;7.244;2023-02-04T06:14:24;6.10;99.90
48998;DHT22;34807;51.456;7.244;2023-02-04T06:16:50;6.10;99.90
48998;DHT22;34807;51.456;7.244;2023-02-04T06:19:15;6.10;99.90
48998;DHT22;34807;51.456;7.244;2023-02-04T06:21:41;6.10;99.90
48998;DHT22;34807;51.456;7.244;2023-02-04T06:24:06;6.10;99.90
48998;DHT22;34807;51.456;7.244;2023-02-04T06:26:32;6.10;99.90
48998;DHT22;34807;51.456;7.244;2023-02-04T06:28:57;6.10;99.90
48998;DHT22;34807;51.456;7.244;2023-02-04T06:31:23;6.00;99.90
48998;DHT22;34807;51.456;7.244;2023-02-04T06:33:48;6.10;99.90
48998;DHT22;34807;51.456;7.244;2023-02-04T06:36:14;6.10;99.90
48998;DHT22;34807;51.456;7.244;2023-02-04T06:38:39;6.00;99.90
48998;DHT22;34807;51.456;7.244;2023-02-04T06:41:04;6.00;99.90
48998;DHT22;34807;51.456;7.244;2023-02-04T06:43:30;6.10;99.90
48998;DHT22;34807;51.456;7.244;2023-02-04T06:45:55;6.10;99.90
48998;DHT22;34807;51.456;7.244;2023-02-04T06:48:21;6.10;99.90
48998;DHT22;34807;51.456;7.244;2023-02-04T06:50:46;6.10;99.90
48998;DHT22;34807;51.456;7.244;2023-02-04T06:53:12;6.10;99.90
48998;DHT22;34807;51.456;7.244;2023-02-04T06:55:37;6.10;99.90
48998;DHT22;34807;51.456;7.244;2023-02-04T06:58:03;6.00;99.90
48998;DHT22;34807;51.456;7.244;2023-02-04T07:00:28;6.00;99.90
48998;DHT22;34807;51.456;7.244;2023-02-04T07:02:55;6.10;99.90
48998;DHT22;34807;51.456;7.244;2023-02-04T07:05:22;6.10;99.90
48998;DHT22;34807;51.456;7.244;2023-02-04T07:07:47;6.00;99.90
48998;DHT22;34807;51.456;7.244;2023-02-04T07:10:13;6.00;99.90
48998;DHT22;34807;51.456;7.244;2023-02-04T07:12:38;6.10;99.90
48998;DHT22;34807;51.456;7.244;2023-02-04T07:15:04;6.10;99.90
48998;DHT22;34807;51.456;7.244;2023-02-04T07:17:29;6.10;99.90
48998;DHT22;34807;51.456;7.244;2023-02-04T07:19:55;6.00;99.90
48998;DHT22;34807;51.456;7.244;2023-02-04T07:22:20;6.00;99.90
48998;DHT22;34807;51.456;7.244;2023-02-04T07:24:46;6.00;99.90
48998;DHT22;34807;51.456;7.244;2023-02-04T07:27:11;6.00;99.90
48998;DHT22;34807;51.456;7.244;2023-02-04T07:29:37;6.00;99.90
48998;DHT22;34807;51.456;7.244;2023-02-04T07:32:02;6.00;99.90
48998;DHT22;34807;51.456;7.244;2023-02-04T07:34:28;6.00;99.90
48998;DHT22;34807;51.456;7.244;2023-02-04T07:36:53;6.00;99.90
48998;DHT22;34807;51.456;7.244;2023-02-04T07:39:19;6.00;99.90
48998;DHT22;34807;51.456;7.244;2023-02-04T07:41:44;6.00;99.90
48998;DHT22;34807;51.456;7.244;2023-02-04T07:44:09;6.00;99.90
48998;DHT22;34807;51.456;7.244;2023-02-04T07:46:35;6.00;99.90
48998;DHT22;34807;51.456;7.244;2023-02-04T07:49:00;6.10;99.90
48998;DHT22;34807;51.456;7.244;2023-02-04T07:51:26;6.00;99.90
48998;DHT22;34807;51.456;7.244;2023-02-04T07:53:51;6.00;99.90
48998;DHT22;34807;51.456;7.244;2023-02-04T07:56:17;6.00;99.90
48998;DHT22;34807;51.456;7.244;2023-02-04T07:58:42;6.00;99.90
48998;DHT22;34807;51.456;7.244;2023-02-04T08:01:08;6.00;99.90
48998;DHT22;34807;51.456;7.244;2023-02-04T08:03:33;6.00;99.90
48998;DHT22;34807;51.456;7.244;2023-02-04T08:05:59;6.00;99.90
48998;DHT22;34807;51.456;7.244;2023-02-04T08:08:24;6.00;99.90
48998;DHT22;34807;51.456;7.244;2023-02-04T08:10:50;6.10;99.90
48998;DHT22;34807;51.456;7.244;2023-02-04T08:13:15;6.10;99.90
48998;DHT22;34807;51.456;7.244;2023-02-04T08:15:41;6.10;99.90
48998;DHT22;34807;51.456;7.244;2023-02-04T08:18:06;6.00;99.90
48998;DHT22;34807;51.456;7.244;2023-02-04T08:20:32;6.10;99.90
48998;DHT22;34807;51.456;7.244;2023-02-04T08:22:57;6.10;99.90
48998;DHT22;34807;51.456;7.244;2023-02-04T08:25:23;6.10;99.90
48998;DHT22;34807;51.456;7.244;2023-02-04T08:27:48;6.00;99.90
48998;DHT22;34807;51.456;7.244;2023-02-04T08:30:14;6.10;99.90
48998;DHT22;34807;51.456;7.244;2023-02-04T08:32:39;6.10;99.90
48998;DHT22;34807;51.456;7.244;2023-02-04T08:35:05;6.10;99.90
48998;DHT22;34807;51.456;7.244;2023-02-04T08:37:31;6.10;99.90
48998;DHT22;34807;51.456;7.244;2023-02-04T08:39:56;6.10;99.90
48998;DHT22;34807;51.456;7.244;2023-02-04T08:42:22;6.10;99.90
48998;DHT22;34807;51.456;7.244;2023-02-04T08:44:47;6.10;99.90
48998;DHT22;34807;51.456;7.244;2023-02-04T08:47:13;6.20;99.90
48998;DHT22;34807;51.456;7.244;2023-02-04T08:49:38;6.10;99.90
48998;DHT22;34807;51.456;7.244;2023-02-04T08:52:04;6.20;99.90
48998;DHT22;34807;51.456;7.244;2023-02-04T08:54:31;6.20;99.90
48998;DHT22;34807;51.456;7.244;2023-02-04T08:56:57;6.20;99.90
48998;DHT22;34807;51.456;7.244;2023-02-04T08:59:23;6.20;99.90
48998;DHT22;34807;51.456;7.244;2023-02-04T09:01:50;6.30;99.90
48998;DHT22;34807;51.456;7.244;2023-02-04T09:04:17;6.30;99.90
48998;DHT22;34807;51.456;7.244;2023-02-04T09:06:43;6.30;99.90
48998;DHT22;34807;51.456;7.244;2023-02-04T09:09:08;6.30;99.90
48998;DHT22;34807;51.456;7.244;2023-02-04T09:11:34;6.30;99.90
48998;DHT22;34807;51.456;7.244;2023-02-04T09:13:59;6.40;99.90
48998;DHT22;34807;51.456;7.244;2023-02-04T09:16:25;6.40;99.90
48998;DHT22;34807;51.456;7.244;2023-02-04T09:18:50;6.40;99.90
48998;DHT22;34807;51.456;7.244;2023-02-04T09:21:16;6.40;99.90
48998;DHT22;34807;51.456;7.244;2023-02-04T09:23:41;6.40;99.90
48998;DHT22;34807;51.456;7.244;2023-02-04T09:26:07;6.40;99.90
48998;DHT22;34807;51.456;7.244;2023-02-04T09:28:32;6.50;99.90
48998;DHT22;34807;51.456;7.244;2023-02-04T09:30:58;6.50;99.90
48998;DHT22;34807;51.456;7.244;2023-02-04T09:33:24;6.50;99.90
48998;DHT22;34807;51.456;7.244;2023-02-04T09:35:49;6.50;99.90
48998;DHT22;34807;51.456;7.244;2023-02-04T09:38:15;6.60;99.90
48998;DHT22;34807;51.456;7.244;2023-02-04T09:40:42;6.60;99.90
48998;DHT22;34807;51.456;7.244;2023-02-04T09:43:11;6.70;99.90
48998;DHT22;34807;51.456;7.244;2023-02-04T09:45:37;6.70;99.90
48998;DHT22;34807;51.456;7.244;2023-02-04T09:48:03;6.70;99.90
48998;DHT22;34807;51.456;7.244;2023-02-04T09:50:29;6.70;99.90
48998;DHT22;34807;51.456;7.244;2023-02-04T09:52:56;6.80;99.90
48998;DHT22;34807;51.456;7.244;2023-02-04T09:55:25;6.70;99.90
48998;DHT22;34807;51.456;7.244;2023-02-04T09:57:51;6.80;99.90
48998;DHT22;34807;51.456;7.244;2023-02-04T10:00:23;6.80;99.90
48998;DHT22;34807;51.456;7.244;2023-02-04T10:02:49;6.90;99.90
48998;DHT22;34807;51.456;7.244;2023-02-04T10:05:16;6.90;99.90
48998;DHT22;34807;51.456;7.244;2023-02-04T10:07:42;6.90;99.90
48998;DHT22;34807;51.456;7.244;2023-02-04T10:10:18;6.90;99.90
48998;DHT22;34807;51.456;7.244;2023-02-04T10:12:44;6.90;99.90
48998;DHT22;34807;51.456;7.244;2023-02-04T10:15:13;7.00;99.90
48998;DHT22;34807;51.456;7.244;2023-02-04T10:17:40;7.00;99.90
48998;DHT22;34807;51.456;7.244;2023-02-04T10:20:10;7.00;99.90
48998;DHT22;34807;51.456;7.244;2023-02-04T10:22:36;7.00;99.90
48998;DHT22;34807;51.456;7.244;2023-02-04T10:25:04;7.00;99.90
48998;DHT22;34807;51.456;7.244;2023-02-04T10:27:32;7.00;99.90
48998;DHT22;34807;51.456;7.244;2023-02-04T10:29:58;7.00;99.90
48998;DHT22;34807;51.456;7.244;2023-02-04T10:32:27;7.10;99.90
48998;DHT22;34807;51.456;7.244;2023-02-04T10:34:55;7.10;99.90
48998;DHT22;34807;51.456;7.244;2023-02-04T10:37:21;7.10;99.90
48998;DHT22;34807;51.456;7.244;2023-02-04T10:39:47;7.10;99.90
48998;DHT22;34807;51.456;7.244;2023-02-04T10:42:26;7.20;99.90
48998;DHT22;34807;51.456;7.244;2023-02-04T10:44:52;7.20;99.90
48998;DHT22;34807;51.456;7.244;2023-02-04T10:47:18;7.20;99.90
48998;DHT22;34807;51.456;7.244;2023-02-04T10:49:54;7.30;99.90
48998;DHT22;34807;51.456;7.244;2023-02-04T10:52:20;7.30;99.90
48998;DHT22;34807;51.456;7.244;2023-02-04T10:54:46;7.30;99.90
48998;DHT22;34807;51.456;7.244;2023-02-04T10:59:37;7.40;99.90
48998;DHT22;34807;51.456;7.244;2023-02-04T11:02:20;7.40;99.90
48998;DHT22;34807;51.456;7.244;2023-02-04T11:04:48;7.40;99.90
48998;DHT22;34807;51.456;7.244;2023-02-04T11:07:13;7.40;99.90
48998;DHT22;34807;51.456;7.244;2023-02-04T11:09:42;7.50;99.90
48998;DHT22;34807;51.456;7.244;2023-02-04T11:12:21;7.50;99.90
48998;DHT22;34807;51.456;7.244;2023-02-04T11:14:53;7.60;99.90
48998;DHT22;34807;51.456;7.244;2023-02-04T11:17:19;7.60;99.90
48998;DHT22;34807;51.456;7.244;2023-02-04T11:19:45;7.60;99.90
48998;DHT22;34807;51.456;7.244;2023-02-04T11:22:23;7.70;99.90
48998;DHT22;34807;51.456;7.244;2023-02-04T11:25:00;7.70;99.90
48998;DHT22;34807;51.456;7.244;2023-02-04T11:27:36;7.70;99.90
48998;DHT22;34807;51.456;7.244;2023-02-04T11:30:06;7.70;99.90
48998;DHT22;34807;51.456;7.244;2023-02-04T11:37:36;7.80;99.90
48998;DHT22;34807;51.456;7.244;2023-02-04T11:40:24;7.80;99.90
48998;DHT22;34807;51.456;7.244;2023-02-04T11:42:48;7.80;99.90
48998;DHT22;34807;51.456;7.244;2023-02-04T11:47:39;7.90;99.90
48998;DHT22;34807;51.456;7.244;2023-02-04T11:50:38;7.90;99.90
48998;DHT22;34807;51.456;7.244;2023-02-04T11:52:57;7.90;99.90
48998;DHT22;34807;51.456;7.244;2023-02-04T11:55:24;7.90;99.90
48998;DHT22;34807;51.456;7.244;2023-02-04T11:57:54;7.90;99.90
48998;DHT22;34807;51.456;7.244;2023-02-04T12:00:24;7.90;99.90
48998;DHT22;34807;51.456;7.244;2023-02-04T12:02:53;7.90;99.90
48998;DHT22;34807;51.456;7.244;2023-02-04T12:05:20;7.90;99.90
48998;DHT22;34807;51.456;7.244;2023-02-04T12:07:46;8.00;99.90
48998;DHT22;34807;51.456;7.244;2023-02-04T12:10:13;8.00;99.90
48998;DHT22;34807;51.456;7.244;2023-02-04T12:12:43;8.00;99.90
48998;DHT22;34807;51.456;7.244;2023-02-04T12:15:13;8.00;99.90
48998;DHT22;34807;51.456;7.244;2023-02-04T12:17:43;8.00;99.90
48998;DHT22;34807;51.456;7.244;2023-02-04T12:20:08;8.00;99.90
48998;DHT22;34807;51.456;7.244;2023-02-04T12:22:34;8.00;99.90
48998;DHT22;34807;51.456;7.244;2023-02-04T12:24:59;8.00;99.90
48998;DHT22;34807;51.456;7.244;2023-02-04T12:27:25;8.00;99.90
48998;DHT22;34807;51.456;7.244;2023-02-04T12:29:50;8.00;99.90
48998;DHT22;34807;51.456;7.244;2023-02-04T12:32:16;8.00;99.90
48998;DHT22;34807;51.456;7.244;2023-02-04T12:34:41;8.00;99.90
48998;DHT22;34807;51.456;7.244;2023-02-04T12:37:07;8.00;99.90
48998;DHT22;34807;51.456;7.244;2023-02-04T12:39:32;8.10;99.90
48998;DHT22;34807;51.456;7.244;2023-02-04T12:41:58;8.10;99.90
48998;DHT22;34807;51.456;7.244;2023-02-04T12:44:23;8.10;99.90
48998;DHT22;34807;51.456;7.244;2023-02-04T12:46:49;8.10;99.90
48998;DHT22;34807;51.456;7.244;2023-02-04T12:49:15;8.10;99.90
48998;DHT22;34807;51.456;7.244;2023-02-04T12:51:40;8.10;99.90
48998;DHT22;34807;51.456;7.244;2023-02-04T12:54:06;8.10;99.90
48998;DHT22;34807;51.456;7.244;2023-02-04T12:56:31;8.10;99.90
48998;DHT22;34807;51.456;7.244;2023-02-04T12:58:57;8.20;99.90
48998;DHT22;34807;51.456;7.244;2023-02-04T13:01:22;8.10;99.90
48998;DHT22;34807;51.456;7.244;2023-02-04T13:03:48;8.20;99.90
48998;DHT22;34807;51.456;7.244;2023-02-04T13:06:13;8.20;99.90
48998;DHT22;34807;51.456;7.244;2023-02-04T13:08:39;8.10;99.90
48998;DHT22;34807;51.456;7.244;2023-02-04T13:11:04;8.20;99.90
48998;DHT22;34807;51.456;7.244;2023-02-04T13:13:30;8.20;99.90
48998;DHT22;34807;51.456;7.244;2023-02-04T13:15:55;8.20;99.90
48998;DHT22;34807;51.456;7.244;2023-02-04T13:18:21;8.20;99.90
48998;DHT22;34807;51.456;7.244;2023-02-04T13:20:46;8.20;99.90
48998;DHT22;34807;51.456;7.244;2023-02-04T13:23:13;8.20;99.90
48998;DHT22;34807;51.456;7.244;2023-02-04T13:25:39;8.20;99.90
48998;DHT22;34807;51.456;7.244;2023-02-04T13:28:05;8.20;99.90
48998;DHT22;34807;51.456;7.244;2023-02-04T13:30:30;8.20;99.90
48998;DHT22;34807;51.456;7.244;2023-02-04T13:32:56;8.30;99.90
48998;DHT22;34807;51.456;7.244;2023-02-04T13:35:21;8.30;99.90
48998;DHT22;34807;51.456;7.244;2023-02-04T13:37:47;8.30;99.90
48998;DHT22;34807;51.456;7.244;2023-02-04T13:40:12;8.40;99.90
48998;DHT22;34807;51.456;7.244;2023-02-04T13:42:38;8.40;99.90
48998;DHT22;34807;51.456;7.244;2023-02-04T13:45:03;8.40;99.90
48998;DHT22;34807;51.456;7.244;2023-02-04T13:47:29;8.40;99.90
48998;DHT22;34807;51.456;7.244;2023-02-04T13:49:55;8.40;99.90
48998;DHT22;34807;51.456;7.244;2023-02-04T13:52:20;8.40;99.90
48998;DHT22;34807;51.456;7.244;2023-02-04T13:54:46;8.50;99.90
48998;DHT22;34807;51.456;7.244;2023-02-04T13:57:11;8.50;99.90
48998;DHT22;34807;51.456;7.244;2023-02-04T13:59:37;8.50;99.90
48998;DHT22;34807;51.456;7.244;2023-02-04T14:02:02;8.50;99.90
48998;DHT22;34807;51.456;7.244;2023-02-04T14:04:28;8.50;99.90
48998;DHT22;34807;51.456;7.244;2023-02-04T14:06:53;8.40;99.90
48998;DHT22;34807;51.456;7.244;2023-02-04T14:09:20;8.50;99.90
48998;DHT22;34807;51.456;7.244;2023-02-04T14:11:46;8.50;99.90
48998;DHT22;34807;51.456;7.244;2023-02-04T14:14:11;8.50;99.90
48998;DHT22;34807;51.456;7.244;2023-02-04T14:16:37;8.50;99.90
48998;DHT22;34807;51.456;7.244;2023-02-04T14:19:03;8.50;99.90
48998;DHT22;34807;51.456;7.244;2023-02-04T14:21:28;8.50;99.90
48998;DHT22;34807;51.456;7.244;2023-02-04T14:23:54;8.50;99.90
48998;DHT22;34807;51.456;7.244;2023-02-04T14:26:19;8.50;99.90
48998;DHT22;34807;51.456;7.244;2023-02-04T14:28:45;8.50;99.90
48998;DHT22;34807;51.456;7.244;2023-02-04T14:31:10;8.60;99.90
48998;DHT22;34807;51.456;7.244;2023-02-04T14:33:36;8.60;99.90
48998;DHT22;34807;51.456;7.244;2023-02-04T14:36:01;8.60;99.90
48998;DHT22;34807;51.456;7.244;2023-02-04T14:38:26;8.50;99.90
48998;DHT22;34807;51.456;7.244;2023-02-04T14:40:56;8.50;99.90
48998;DHT22;34807;51.456;7.244;2023-02-04T14:43:21;8.60;99.90
48998;DHT22;34807;51.456;7.244;2023-02-04T14:45:47;8.50;99.90
48998;DHT22;34807;51.456;7.244;2023-02-04T14:48:12;8.50;99.90
48998;DHT22;34807;51.456;7.244;2023-02-04T14:50:38;8.60;99.90
48998;DHT22;34807;51.456;7.244;2023-02-04T14:53:03;8.60;99.90
48998;DHT22;34807;51.456;7.244;2023-02-04T14:55:29;8.60;99.90
48998;DHT22;34807;51.456;7.244;2023-02-04T14:57:54;8.50;99.90
48998;DHT22;34807;51.456;7.244;2023-02-04T15:00:20;8.50;99.90
48998;DHT22;34807;51.456;7.244;2023-02-04T15:02:45;8.50;99.90
48998;DHT22;34807;51.456;7.244;2023-02-04T15:05:11;8.50;99.90
48998;DHT22;34807;51.456;7.244;2023-02-04T15:07:37;8.50;99.90
48998;DHT22;34807;51.456;7.244;2023-02-04T15:10:03;8.40;99.90
48998;DHT22;34807;51.456;7.244;2023-02-04T15:12:29;8.40;99.90
48998;DHT22;34807;51.456;7.244;2023-02-04T15:14:54;8.40;99.90
48998;DHT22;34807;51.456;7.244;2023-02-04T15:17:20;8.40;99.90
48998;DHT22;34807;51.456;7.244;2023-02-04T15:19:45;8.40;99.90
48998;DHT22;34807;51.456;7.244;2023-02-04T15:22:11;8.30;99.90
48998;DHT22;34807;51.456;7.244;2023-02-04T15:24:37;8.40;99.90
48998;DHT22;34807;51.456;7.244;2023-02-04T15:27:02;8.30;99.90
48998;DHT22;34807;51.456;7.244;2023-02-04T15:29:28;8.30;99.90
48998;DHT22;34807;51.456;7.244;2023-02-04T15:31:54;8.30;99.90
48998;DHT22;34807;51.456;7.244;2023-02-04T15:34:20;8.30;99.90
48998;DHT22;34807;51.456;7.244;2023-02-04T15:36:45;8.20;99.90
48998;DHT22;34807;51.456;7.244;2023-02-04T15:39:11;8.20;99.90
48998;DHT22;34807;51.456;7.244;2023-02-04T15:41:36;8.20;99.90
48998;DHT22;34807;51.456;7.244;2023-02-04T15:44:02;8.20;99.90
48998;DHT22;34807;51.456;7.244;2023-02-04T15:46:30;8.20;99.90
48998;DHT22;34807;51.456;7.244;2023-02-04T15:48:55;8.20;99.90
48998;DHT22;34807;51.456;7.244;2023-02-04T15:51:21;8.10;99.90
48998;DHT22;34807;51.456;7.244;2023-02-04T15:53:46;8.10;99.90